Meteo Giornale » Osservazioni meteo Romania » Iasi

ore: 14:30 - Osservazioni Meteo Iasi
Lat. 47° 10' N Lon. 27° 38' E Alt. 102 metri s.l.m.

sereno Europe/Bucharest

14 °C

Sereno

Temp. 24 Ore

0 °C

14 °C

Sud/Sud-Ovest

14.8 Km/h

Dew point -8 °C

Umidità 20 %

Visibilità  10 Km

Il sole sorge alle ore 06:55

Il sole tramonta alle ore 17:49

Data e Ora Cielo e Fenomeni T °C DP °C Um. % Pres. hPa Vis. km Vento km/h
Oggi h: 14:30 sereno Sereno 14 -8 20 1008 10 S/SO 14.8
Oggi h: 13:30 sereno Sereno 13 -7 24 1008 10 S 9.3
Oggi h: 13:00 sereno Sereno 12 -7 25 1009 10 S/SO 11.1
Oggi h: 12:30 sereno Sereno 11 -7 27 1009 10 S 13
Oggi h: 12:00 sereno Sereno 10 -5 34 1010 10 S/SE 9.3
Oggi h: 11:30 sereno Sereno 8 -3 45 1010 10 E/SE 11.1
Oggi h: 11:00 sereno Sereno 6 -2 56 1011 10 E/SE 13
Oggi h: 10:30 sereno Sereno 6 -2 56 1011 10 E/SE 13
Oggi h: 10:00 nuvoloso Nuvoloso 5 -3 56 1011 10 E 9.3
Oggi h: 09:00 sereno Sereno 2 -3 69 1013 10 N 3.7
Oggi h: 08:30 sereno Sereno 1 -3 74 1013 10 E/SE 9.3
Oggi h: 07:30 sereno Sereno 1 -4 69 1013 10 N 5.5
Oggi h: 07:00 sereno Sereno 1 -5 64 1013 10 SE 7.4
Oggi h: 06:00 sereno Sereno 1 -5 64 1014 10 N 5.5
Oggi h: 05:30 sereno Sereno 0 -5 68 1015 10 S/SO 7.4
Oggi h: 05:00 sereno Sereno 0 -4 74 1015 10 SO 7.4
Oggi h: 04:30 sereno Sereno -0 -4 74 1015 10 N 3.7
Oggi h: 04:00 sereno Sereno 2 -5 59 1015 10 N 5.5
Oggi h: 03:30 sereno Sereno 2 -4 64 1015 10 N 3.7
Oggi h: 03:00 sereno Sereno 2 -4 64 1016 10 N 3.7
Oggi h: 02:30 sereno Sereno 2 -4 64 1016 10 N 3.7
Oggi h: 02:00 sereno Sereno 1 -4 69 1017 10 N 3.7
Oggi h: 01:30 sereno Sereno 2 -3 69 1017 10 N 1.8
Oggi h: 01:00 sereno Sereno 1 -3 74 1017 10 N 5.5
Oggi h: 00:30 sereno Sereno 1 -3 74 1016 10 N 9.3
Oggi h: 00:00 sereno Sereno 3 -3 64 1016 10 NO 9.3
Ieri h: 23:30 sereno Sereno 4 -3 60 1016 10 O/NO 14.8
Ieri h: 23:00 sereno Sereno 4 -3 60 1016 10 O/NO 13
Ieri h: 22:30 sereno Sereno 4 -2 64 1016 10 O/NO 13
Ieri h: 22:00 sereno Sereno 4 -2 64 1016 10 O/NO 14.8
Ieri h: 21:30 sereno Sereno 5 -2 60 1016 10 O/NO 18.5
Ieri h: 21:00 sereno Sereno 5 -2 60 1015 10 O/NO 20.3
Ieri h: 20:30 sereno Sereno 5 -2 60 1015 10 O/NO 24
Ieri h: 20:00 sereno Sereno 5 -2 60 1015 10 O/NO 24
Ieri h: 19:30 sereno Sereno 5 -2 60 1014 10 O/NO 25.9
Ieri h: 18:30 sereno Sereno 6 -1 60 1013 10 O/NO 29.6
Ieri h: 18:00 poco_nuvoloso Poco Nuvoloso 6 -1 60 1013 10 O/NO 31.5
Ieri h: 17:30 poco_nuvoloso Poco Nuvoloso 6 -1 60 1012 10 O/NO 31.5
Ieri h: 16:30 poco_nuvoloso Poco Nuvoloso 7 -2 52 1011 10 O/NO 46.3
Ieri h: 16:00 nuvoloso Nuvoloso 8 -1 52 1010 10 NO 46.3
Ieri h: 15:30 nuvoloso Nuvoloso 8 -1 52 1010 10 O/NO 48.1
Ieri h: 15:00 nuvoloso Nuvoloso 7 -1 56 1009 10 NO 37